sensor_id;sensor_type;location;lat;lon;timestamp;temperature;humidity
52669;DHT22;59898;52.786;6.892;2022-11-20T00:01:59;0.10;99.90
52669;DHT22;59898;52.786;6.892;2022-11-20T00:05:20;0.10;99.90
52669;DHT22;59898;52.786;6.892;2022-11-20T00:08:41;0.00;99.90
52669;DHT22;59898;52.786;6.892;2022-11-20T00:12:02;0.60;99.90
52669;DHT22;59898;52.786;6.892;2022-11-20T00:15:23;0.10;99.90
52669;DHT22;59898;52.786;6.892;2022-11-20T00:18:44;0.20;99.90
52669;DHT22;59898;52.786;6.892;2022-11-20T00:22:05;0.10;99.90
52669;DHT22;59898;52.786;6.892;2022-11-20T00:25:26;0.00;99.90
52669;DHT22;59898;52.786;6.892;2022-11-20T00:28:55;0.40;99.90
52669;DHT22;59898;52.786;6.892;2022-11-20T00:32:16;0.10;99.90
52669;DHT22;59898;52.786;6.892;2022-11-20T00:35:36;0.20;99.90
52669;DHT22;59898;52.786;6.892;2022-11-20T00:38:58;0.90;99.90
52669;DHT22;59898;52.786;6.892;2022-11-20T00:42:19;0.10;99.90
52669;DHT22;59898;52.786;6.892;2022-11-20T00:45:39;0.30;99.90
52669;DHT22;59898;52.786;6.892;2022-11-20T00:49:00;-0.10;99.90
52669;DHT22;59898;52.786;6.892;2022-11-20T00:52:21;0.70;99.90
52669;DHT22;59898;52.786;6.892;2022-11-20T00:55:42;1.60;99.90
52669;DHT22;59898;52.786;6.892;2022-11-20T00:59:02;0.50;99.90
52669;DHT22;59898;52.786;6.892;2022-11-20T01:02:23;-0.10;99.90
52669;DHT22;59898;52.786;6.892;2022-11-20T01:05:44;0.00;99.90
52669;DHT22;59898;52.786;6.892;2022-11-20T01:09:09;0.10;99.90
52669;DHT22;59898;52.786;6.892;2022-11-20T01:12:30;0.10;99.90
52669;DHT22;59898;52.786;6.892;2022-11-20T01:15:50;1.60;99.90
52669;DHT22;59898;52.786;6.892;2022-11-20T01:19:15;0.50;99.90
52669;DHT22;59898;52.786;6.892;2022-11-20T01:22:35;0.20;99.90
52669;DHT22;59898;52.786;6.892;2022-11-20T01:25:56;0.00;99.90
52669;DHT22;59898;52.786;6.892;2022-11-20T01:29:19;0.20;99.90
52669;DHT22;59898;52.786;6.892;2022-11-20T01:32:40;0.20;99.90
52669;DHT22;59898;52.786;6.892;2022-11-20T01:36:05;0.40;99.90
52669;DHT22;59898;52.786;6.892;2022-11-20T01:39:26;0.10;99.90
52669;DHT22;59898;52.786;6.892;2022-11-20T01:42:53;0.10;99.90
52669;DHT22;59898;52.786;6.892;2022-11-20T01:46:38;0.00;99.90
52669;DHT22;59898;52.786;6.892;2022-11-20T01:50:15;0.00;99.90
52669;DHT22;59898;52.786;6.892;2022-11-20T01:53:37;0.20;99.90
52669;DHT22;59898;52.786;6.892;2022-11-20T01:56:59;0.60;99.90
52669;DHT22;59898;52.786;6.892;2022-11-20T02:00:21;0.40;99.90
52669;DHT22;59898;52.786;6.892;2022-11-20T02:03:43;0.50;99.90
52669;DHT22;59898;52.786;6.892;2022-11-20T02:07:05;0.50;99.90
52669;DHT22;59898;52.786;6.892;2022-11-20T02:10:27;1.80;99.90
52669;DHT22;59898;52.786;6.892;2022-11-20T02:13:48;0.60;99.90
52669;DHT22;59898;52.786;6.892;2022-11-20T02:17:10;0.70;99.90
52669;DHT22;59898;52.786;6.892;2022-11-20T02:20:30;0.40;99.90
52669;DHT22;59898;52.786;6.892;2022-11-20T02:24:07;0.70;99.90
52669;DHT22;59898;52.786;6.892;2022-11-20T02:27:29;0.60;99.90
52669;DHT22;59898;52.786;6.892;2022-11-20T02:30:49;0.90;99.90
52669;DHT22;59898;52.786;6.892;2022-11-20T02:34:10;0.30;99.90
52669;DHT22;59898;52.786;6.892;2022-11-20T02:37:33;0.60;99.90
52669;DHT22;59898;52.786;6.892;2022-11-20T02:40:55;0.50;99.90
52669;DHT22;59898;52.786;6.892;2022-11-20T02:44:15;0.60;99.90
52669;DHT22;59898;52.786;6.892;2022-11-20T02:47:36;0.60;99.90
52669;DHT22;59898;52.786;6.892;2022-11-20T02:50:57;0.60;99.90
52669;DHT22;59898;52.786;6.892;2022-11-20T02:54:18;0.50;99.90
52669;DHT22;59898;52.786;6.892;2022-11-20T02:57:38;0.70;99.90
52669;DHT22;59898;52.786;6.892;2022-11-20T03:00:59;1.60;99.90
52669;DHT22;59898;52.786;6.892;2022-11-20T03:04:20;0.60;99.90
52669;DHT22;59898;52.786;6.892;2022-11-20T03:07:40;0.60;99.90
52669;DHT22;59898;52.786;6.892;2022-11-20T03:11:06;1.10;99.90
52669;DHT22;59898;52.786;6.892;2022-11-20T03:14:27;0.60;99.90
52669;DHT22;59898;52.786;6.892;2022-11-20T03:17:47;1.30;99.90
52669;DHT22;59898;52.786;6.892;2022-11-20T03:21:10;1.10;99.90
52669;DHT22;59898;52.786;6.892;2022-11-20T03:24:31;1.50;99.90
52669;DHT22;59898;52.786;6.892;2022-11-20T03:27:51;0.70;99.90
52669;DHT22;59898;52.786;6.892;2022-11-20T03:31:14;0.80;99.90
52669;DHT22;59898;52.786;6.892;2022-11-20T03:34:35;0.70;99.90
52669;DHT22;59898;52.786;6.892;2022-11-20T03:37:57;1.40;99.90
52669;DHT22;59898;52.786;6.892;2022-11-20T03:41:24;0.70;99.90
52669;DHT22;59898;52.786;6.892;2022-11-20T03:44:44;0.60;99.90
52669;DHT22;59898;52.786;6.892;2022-11-20T03:48:05;1.60;99.90
52669;DHT22;59898;52.786;6.892;2022-11-20T03:51:28;0.30;99.90
52669;DHT22;59898;52.786;6.892;2022-11-20T03:54:48;0.60;99.90
52669;DHT22;59898;52.786;6.892;2022-11-20T03:58:09;0.60;99.90
52669;DHT22;59898;52.786;6.892;2022-11-20T04:01:35;0.60;99.90
52669;DHT22;59898;52.786;6.892;2022-11-20T04:04:57;0.70;99.90
52669;DHT22;59898;52.786;6.892;2022-11-20T04:08:18;0.60;99.90
52669;DHT22;59898;52.786;6.892;2022-11-20T04:11:40;1.20;99.90
52669;DHT22;59898;52.786;6.892;2022-11-20T04:15:01;0.70;99.90
52669;DHT22;59898;52.786;6.892;2022-11-20T04:18:21;0.50;99.90
52669;DHT22;59898;52.786;6.892;2022-11-20T04:21:43;0.70;99.90
52669;DHT22;59898;52.786;6.892;2022-11-20T04:25:04;0.60;99.90
52669;DHT22;59898;52.786;6.892;2022-11-20T04:28:25;0.80;99.90
52669;DHT22;59898;52.786;6.892;2022-11-20T04:31:45;0.70;99.90
52669;DHT22;59898;52.786;6.892;2022-11-20T04:35:06;1.30;99.90
52669;DHT22;59898;52.786;6.892;2022-11-20T04:38:27;0.80;99.90
52669;DHT22;59898;52.786;6.892;2022-11-20T04:41:48;0.70;99.90
52669;DHT22;59898;52.786;6.892;2022-11-20T04:45:08;0.70;99.90
52669;DHT22;59898;52.786;6.892;2022-11-20T04:48:30;0.80;99.90
52669;DHT22;59898;52.786;6.892;2022-11-20T04:51:53;1.20;99.90
52669;DHT22;59898;52.786;6.892;2022-11-20T04:55:14;1.60;99.90
52669;DHT22;59898;52.786;6.892;2022-11-20T04:58:35;0.70;99.90
52669;DHT22;59898;52.786;6.892;2022-11-20T05:01:56;0.60;99.90
52669;DHT22;59898;52.786;6.892;2022-11-20T05:05:17;0.60;99.90
52669;DHT22;59898;52.786;6.892;2022-11-20T05:08:38;0.60;99.90
52669;DHT22;59898;52.786;6.892;2022-11-20T05:11:59;0.60;99.90
52669;DHT22;59898;52.786;6.892;2022-11-20T05:15:19;0.70;99.90
52669;DHT22;59898;52.786;6.892;2022-11-20T05:18:40;1.10;99.90
52669;DHT22;59898;52.786;6.892;2022-11-20T05:22:01;1.60;99.90
52669;DHT22;59898;52.786;6.892;2022-11-20T05:25:22;0.60;99.90
52669;DHT22;59898;52.786;6.892;2022-11-20T05:28:43;0.70;99.90
52669;DHT22;59898;52.786;6.892;2022-11-20T05:32:03;0.90;99.90
52669;DHT22;59898;52.786;6.892;2022-11-20T05:35:26;0.70;99.90
52669;DHT22;59898;52.786;6.892;2022-11-20T05:38:46;1.90;99.90
52669;DHT22;59898;52.786;6.892;2022-11-20T05:42:07;0.60;99.90
52669;DHT22;59898;52.786;6.892;2022-11-20T05:45:55;0.50;99.90
52669;DHT22;59898;52.786;6.892;2022-11-20T05:49:16;1.90;99.90
52669;DHT22;59898;52.786;6.892;2022-11-20T05:52:37;0.50;99.90
52669;DHT22;59898;52.786;6.892;2022-11-20T05:55:59;1.40;99.90
52669;DHT22;59898;52.786;6.892;2022-11-20T05:59:20;1.70;99.90
52669;DHT22;59898;52.786;6.892;2022-11-20T06:02:41;1.00;99.90
52669;DHT22;59898;52.786;6.892;2022-11-20T06:06:03;0.60;99.90
52669;DHT22;59898;52.786;6.892;2022-11-20T06:09:24;0.70;99.90
52669;DHT22;59898;52.786;6.892;2022-11-20T06:12:44;2.00;99.90
52669;DHT22;59898;52.786;6.892;2022-11-20T06:16:05;0.70;99.90
52669;DHT22;59898;52.786;6.892;2022-11-20T06:19:26;0.80;99.90
52669;DHT22;59898;52.786;6.892;2022-11-20T06:22:47;0.60;99.90
52669;DHT22;59898;52.786;6.892;2022-11-20T06:26:11;0.80;99.90
52669;DHT22;59898;52.786;6.892;2022-11-20T06:29:31;0.90;99.90
52669;DHT22;59898;52.786;6.892;2022-11-20T06:32:52;2.20;99.90
52669;DHT22;59898;52.786;6.892;2022-11-20T06:36:14;0.90;99.90
52669;DHT22;59898;52.786;6.892;2022-11-20T06:39:35;1.40;99.90
52669;DHT22;59898;52.786;6.892;2022-11-20T06:42:55;0.80;99.90
52669;DHT22;59898;52.786;6.892;2022-11-20T06:46:17;0.80;99.90
52669;DHT22;59898;52.786;6.892;2022-11-20T06:49:38;1.10;99.90
52669;DHT22;59898;52.786;6.892;2022-11-20T06:53:03;0.90;99.90
52669;DHT22;59898;52.786;6.892;2022-11-20T06:56:24;2.00;99.90
52669;DHT22;59898;52.786;6.892;2022-11-20T06:59:44;1.30;99.90
52669;DHT22;59898;52.786;6.892;2022-11-20T07:03:06;1.00;99.90
52669;DHT22;59898;52.786;6.892;2022-11-20T07:06:27;2.10;99.90
52669;DHT22;59898;52.786;6.892;2022-11-20T07:09:48;0.50;99.90
52669;DHT22;59898;52.786;6.892;2022-11-20T07:13:08;0.40;99.90
52669;DHT22;59898;52.786;6.892;2022-11-20T07:16:29;0.40;99.90
52669;DHT22;59898;52.786;6.892;2022-11-20T07:19:50;1.70;99.90
52669;DHT22;59898;52.786;6.892;2022-11-20T07:23:10;0.60;99.90
52669;DHT22;59898;52.786;6.892;2022-11-20T07:26:31;1.20;99.90
52669;DHT22;59898;52.786;6.892;2022-11-20T07:29:51;0.90;99.90
52669;DHT22;59898;52.786;6.892;2022-11-20T07:33:12;0.50;99.90
52669;DHT22;59898;52.786;6.892;2022-11-20T07:36:33;0.30;99.90
52669;DHT22;59898;52.786;6.892;2022-11-20T07:39:53;1.80;99.90
52669;DHT22;59898;52.786;6.892;2022-11-20T07:43:14;0.30;99.90
52669;DHT22;59898;52.786;6.892;2022-11-20T07:46:35;0.40;99.90
52669;DHT22;59898;52.786;6.892;2022-11-20T07:49:55;0.40;99.90
52669;DHT22;59898;52.786;6.892;2022-11-20T07:53:16;0.50;99.90
52669;DHT22;59898;52.786;6.892;2022-11-20T07:56:41;0.90;99.90
52669;DHT22;59898;52.786;6.892;2022-11-20T08:00:03;1.10;99.90
52669;DHT22;59898;52.786;6.892;2022-11-20T08:03:23;0.60;99.90
52669;DHT22;59898;52.786;6.892;2022-11-20T08:06:44;1.50;99.90
52669;DHT22;59898;52.786;6.892;2022-11-20T08:10:06;1.40;99.90
52669;DHT22;59898;52.786;6.892;2022-11-20T08:13:27;0.50;99.90
52669;DHT22;59898;52.786;6.892;2022-11-20T08:17:06;1.40;99.90
52669;DHT22;59898;52.786;6.892;2022-11-20T08:20:27;0.40;99.90
52669;DHT22;59898;52.786;6.892;2022-11-20T08:23:48;1.20;99.90
52669;DHT22;59898;52.786;6.892;2022-11-20T08:27:08;0.40;99.90
52669;DHT22;59898;52.786;6.892;2022-11-20T08:30:30;0.50;99.90
52669;DHT22;59898;52.786;6.892;2022-11-20T08:33:51;0.30;99.90
52669;DHT22;59898;52.786;6.892;2022-11-20T08:37:12;0.60;99.90
52669;DHT22;59898;52.786;6.892;2022-11-20T08:40:33;0.50;99.90
52669;DHT22;59898;52.786;6.892;2022-11-20T08:44:02;0.60;99.90
52669;DHT22;59898;52.786;6.892;2022-11-20T08:47:23;0.10;99.90
52669;DHT22;59898;52.786;6.892;2022-11-20T08:50:43;0.50;99.90
52669;DHT22;59898;52.786;6.892;2022-11-20T08:54:04;1.00;99.90
52669;DHT22;59898;52.786;6.892;2022-11-20T08:57:25;0.70;99.90
52669;DHT22;59898;52.786;6.892;2022-11-20T09:00:46;0.60;99.90
52669;DHT22;59898;52.786;6.892;2022-11-20T09:04:07;1.70;99.90
52669;DHT22;59898;52.786;6.892;2022-11-20T09:07:29;1.00;99.90
52669;DHT22;59898;52.786;6.892;2022-11-20T09:10:54;2.80;99.90
52669;DHT22;59898;52.786;6.892;2022-11-20T09:14:15;2.30;99.90
52669;DHT22;59898;52.786;6.892;2022-11-20T09:17:36;0.90;99.90
52669;DHT22;59898;52.786;6.892;2022-11-20T09:20:58;1.80;99.90
52669;DHT22;59898;52.786;6.892;2022-11-20T09:24:19;1.10;99.90
52669;DHT22;59898;52.786;6.892;2022-11-20T09:27:41;2.30;99.90
52669;DHT22;59898;52.786;6.892;2022-11-20T09:31:30;1.00;99.90
52669;DHT22;59898;52.786;6.892;2022-11-20T09:34:51;1.50;99.90
52669;DHT22;59898;52.786;6.892;2022-11-20T09:38:11;1.30;99.90
52669;DHT22;59898;52.786;6.892;2022-11-20T09:41:59;2.30;99.90
52669;DHT22;59898;52.786;6.892;2022-11-20T09:45:50;1.20;99.90
52669;DHT22;59898;52.786;6.892;2022-11-20T09:49:22;1.30;99.90
52669;DHT22;59898;52.786;6.892;2022-11-20T09:53:13;1.10;99.90
52669;DHT22;59898;52.786;6.892;2022-11-20T09:56:39;1.40;99.90
52669;DHT22;59898;52.786;6.892;2022-11-20T10:00:03;2.20;99.90
52669;DHT22;59898;52.786;6.892;2022-11-20T10:11:24;2.90;99.90
52669;DHT22;59898;52.786;6.892;2022-11-20T10:25:43;3.00;99.90
52669;DHT22;59898;52.786;6.892;2022-11-20T10:29:13;4.10;99.90
52669;DHT22;59898;52.786;6.892;2022-11-20T10:32:42;4.30;99.90
52669;DHT22;59898;52.786;6.892;2022-11-20T10:36:09;4.40;99.90
52669;DHT22;59898;52.786;6.892;2022-11-20T10:39:50;4.60;99.90
52669;DHT22;59898;52.786;6.892;2022-11-20T10:43:25;4.80;99.90
52669;DHT22;59898;52.786;6.892;2022-11-20T10:46:49;5.00;99.90
52669;DHT22;59898;52.786;6.892;2022-11-20T10:50:14;5.00;99.90
52669;DHT22;59898;52.786;6.892;2022-11-20T11:01:15;4.90;99.90
52669;DHT22;59898;52.786;6.892;2022-11-20T11:04:43;4.80;99.90
52669;DHT22;59898;52.786;6.892;2022-11-20T11:08:10;4.70;99.90
52669;DHT22;59898;52.786;6.892;2022-11-20T11:11:33;5.00;99.90
52669;DHT22;59898;52.786;6.892;2022-11-20T11:14:56;4.50;99.90
52669;DHT22;59898;52.786;6.892;2022-11-20T11:18:28;4.20;99.90
52669;DHT22;59898;52.786;6.892;2022-11-20T11:21:53;4.30;99.90
52669;DHT22;59898;52.786;6.892;2022-11-20T11:25:30;4.40;99.90
52669;DHT22;59898;52.786;6.892;2022-11-20T11:29:01;4.40;99.90
52669;DHT22;59898;52.786;6.892;2022-11-20T11:32:23;5.30;99.90
52669;DHT22;59898;52.786;6.892;2022-11-20T11:35:52;4.60;99.90
52669;DHT22;59898;52.786;6.892;2022-11-20T11:39:15;3.90;99.90
52669;DHT22;59898;52.786;6.892;2022-11-20T11:42:49;4.00;99.90
52669;DHT22;59898;52.786;6.892;2022-11-20T11:49:41;3.50;99.90
52669;DHT22;59898;52.786;6.892;2022-11-20T11:53:14;3.50;99.90
52669;DHT22;59898;52.786;6.892;2022-11-20T11:56:37;3.20;99.90
52669;DHT22;59898;52.786;6.892;2022-11-20T12:00:10;3.10;99.90
52669;DHT22;59898;52.786;6.892;2022-11-20T12:03:34;3.10;99.90
52669;DHT22;59898;52.786;6.892;2022-11-20T12:07:13;3.20;99.90
52669;DHT22;59898;52.786;6.892;2022-11-20T12:17:47;3.90;99.90
52669;DHT22;59898;52.786;6.892;2022-11-20T12:21:11;3.70;99.90
52669;DHT22;59898;52.786;6.892;2022-11-20T12:42:49;5.20;99.90
52669;DHT22;59898;52.786;6.892;2022-11-20T12:46:45;4.80;99.90
52669;DHT22;59898;52.786;6.892;2022-11-20T12:57:50;4.30;99.90
52669;DHT22;59898;52.786;6.892;2022-11-20T13:01:25;4.40;99.90
52669;DHT22;59898;52.786;6.892;2022-11-20T13:05:26;4.40;99.90
52669;DHT22;59898;52.786;6.892;2022-11-20T13:08:53;4.20;99.90
52669;DHT22;59898;52.786;6.892;2022-11-20T13:16:02;3.80;99.90
52669;DHT22;59898;52.786;6.892;2022-11-20T13:19:25;3.70;99.90
52669;DHT22;59898;52.786;6.892;2022-11-20T13:22:47;3.30;99.90
52669;DHT22;59898;52.786;6.892;2022-11-20T13:26:35;3.40;99.90
52669;DHT22;59898;52.786;6.892;2022-11-20T13:30:02;3.50;99.90
52669;DHT22;59898;52.786;6.892;2022-11-20T13:33:34;3.30;99.90
52669;DHT22;59898;52.786;6.892;2022-11-20T13:36:57;3.30;99.90
52669;DHT22;59898;52.786;6.892;2022-11-20T13:40:23;3.30;99.90
52669;DHT22;59898;52.786;6.892;2022-11-20T13:43:44;3.30;99.90
52669;DHT22;59898;52.786;6.892;2022-11-20T13:47:27;3.30;99.90
52669;DHT22;59898;52.786;6.892;2022-11-20T13:58:53;3.00;99.90
52669;DHT22;59898;52.786;6.892;2022-11-20T14:02:18;3.00;99.90
52669;DHT22;59898;52.786;6.892;2022-11-20T14:05:49;4.30;99.90
52669;DHT22;59898;52.786;6.892;2022-11-20T14:09:23;3.30;99.90
52669;DHT22;59898;52.786;6.892;2022-11-20T14:12:44;2.30;99.90
52669;DHT22;59898;52.786;6.892;2022-11-20T14:16:05;3.00;99.90
52669;DHT22;59898;52.786;6.892;2022-11-20T14:19:28;2.80;99.90
52669;DHT22;59898;52.786;6.892;2022-11-20T14:22:50;3.20;99.90
52669;DHT22;59898;52.786;6.892;2022-11-20T14:26:15;2.90;99.90
52669;DHT22;59898;52.786;6.892;2022-11-20T14:29:38;2.70;99.90
52669;DHT22;59898;52.786;6.892;2022-11-20T14:33:02;3.00;99.90
52669;DHT22;59898;52.786;6.892;2022-11-20T14:36:24;2.60;99.90
52669;DHT22;59898;52.786;6.892;2022-11-20T14:39:55;2.50;99.90
52669;DHT22;59898;52.786;6.892;2022-11-20T14:43:24;2.50;99.90
52669;DHT22;59898;52.786;6.892;2022-11-20T14:46:45;2.30;99.90
52669;DHT22;59898;52.786;6.892;2022-11-20T14:50:22;2.30;99.90
52669;DHT22;59898;52.786;6.892;2022-11-20T14:53:43;2.30;99.90
52669;DHT22;59898;52.786;6.892;2022-11-20T14:57:04;2.40;99.90
52669;DHT22;59898;52.786;6.892;2022-11-20T15:00:25;2.20;99.90
52669;DHT22;59898;52.786;6.892;2022-11-20T15:03:46;2.10;99.90
52669;DHT22;59898;52.786;6.892;2022-11-20T15:07:07;3.20;99.90
52669;DHT22;59898;52.786;6.892;2022-11-20T15:10:28;2.60;99.90
52669;DHT22;59898;52.786;6.892;2022-11-20T15:13:49;2.40;99.90
52669;DHT22;59898;52.786;6.892;2022-11-20T15:17:11;2.00;99.90
52669;DHT22;59898;52.786;6.892;2022-11-20T15:20:33;1.90;99.90
52669;DHT22;59898;52.786;6.892;2022-11-20T15:23:54;2.00;99.90
52669;DHT22;59898;52.786;6.892;2022-11-20T15:27:15;1.90;99.90
52669;DHT22;59898;52.786;6.892;2022-11-20T15:30:36;2.00;99.90
52669;DHT22;59898;52.786;6.892;2022-11-20T15:33:57;3.20;99.90
52669;DHT22;59898;52.786;6.892;2022-11-20T15:37:18;2.20;99.90
52669;DHT22;59898;52.786;6.892;2022-11-20T15:40:38;1.90;99.90
52669;DHT22;59898;52.786;6.892;2022-11-20T15:43:59;1.90;99.90
52669;DHT22;59898;52.786;6.892;2022-11-20T15:47:31;1.90;99.90
52669;DHT22;59898;52.786;6.892;2022-11-20T15:51:02;1.90;99.90
52669;DHT22;59898;52.786;6.892;2022-11-20T15:54:23;1.80;99.90
52669;DHT22;59898;52.786;6.892;2022-11-20T15:57:44;1.80;99.90
52669;DHT22;59898;52.786;6.892;2022-11-20T16:01:04;1.60;99.90
52669;DHT22;59898;52.786;6.892;2022-11-20T16:04:25;1.80;99.90
52669;DHT22;59898;52.786;6.892;2022-11-20T16:07:46;2.40;99.90
52669;DHT22;59898;52.786;6.892;2022-11-20T16:11:09;2.30;99.90
52669;DHT22;59898;52.786;6.892;2022-11-20T16:14:31;2.20;99.90
52669;DHT22;59898;52.786;6.892;2022-11-20T16:18:10;1.60;99.90
52669;DHT22;59898;52.786;6.892;2022-11-20T16:21:31;1.60;99.90
52669;DHT22;59898;52.786;6.892;2022-11-20T16:24:52;1.60;99.90
52669;DHT22;59898;52.786;6.892;2022-11-20T16:28:13;1.50;99.90
52669;DHT22;59898;52.786;6.892;2022-11-20T16:31:34;2.10;99.90
52669;DHT22;59898;52.786;6.892;2022-11-20T16:34:55;1.40;99.90
52669;DHT22;59898;52.786;6.892;2022-11-20T16:38:15;2.30;99.90
52669;DHT22;59898;52.786;6.892;2022-11-20T16:41:36;1.40;99.90
52669;DHT22;59898;52.786;6.892;2022-11-20T16:44:57;1.50;99.90
52669;DHT22;59898;52.786;6.892;2022-11-20T16:48:18;1.30;99.90
52669;DHT22;59898;52.786;6.892;2022-11-20T16:51:39;2.10;99.90
52669;DHT22;59898;52.786;6.892;2022-11-20T16:55:00;1.30;99.90
52669;DHT22;59898;52.786;6.892;2022-11-20T16:58:20;1.30;99.90
52669;DHT22;59898;52.786;6.892;2022-11-20T17:01:41;1.30;99.90
52669;DHT22;59898;52.786;6.892;2022-11-20T17:05:03;1.30;99.90
52669;DHT22;59898;52.786;6.892;2022-11-20T17:08:24;1.30;99.90
52669;DHT22;59898;52.786;6.892;2022-11-20T17:11:47;1.40;99.90
52669;DHT22;59898;52.786;6.892;2022-11-20T17:15:08;1.50;99.90
52669;DHT22;59898;52.786;6.892;2022-11-20T17:18:29;1.30;99.90
52669;DHT22;59898;52.786;6.892;2022-11-20T17:21:50;1.30;99.90
52669;DHT22;59898;52.786;6.892;2022-11-20T17:25:11;2.60;99.90
52669;DHT22;59898;52.786;6.892;2022-11-20T17:28:33;1.20;99.90
52669;DHT22;59898;52.786;6.892;2022-11-20T17:31:53;2.00;99.90
52669;DHT22;59898;52.786;6.892;2022-11-20T17:35:14;1.50;99.90
52669;DHT22;59898;52.786;6.892;2022-11-20T17:38:35;1.30;99.90
52669;DHT22;59898;52.786;6.892;2022-11-20T17:41:56;1.30;99.90
52669;DHT22;59898;52.786;6.892;2022-11-20T17:45:35;1.70;99.90
52669;DHT22;59898;52.786;6.892;2022-11-20T17:48:56;2.20;99.90
52669;DHT22;59898;52.786;6.892;2022-11-20T17:52:16;2.50;99.90
52669;DHT22;59898;52.786;6.892;2022-11-20T17:55:37;2.70;99.90
52669;DHT22;59898;52.786;6.892;2022-11-20T17:59:16;1.60;99.90
52669;DHT22;59898;52.786;6.892;2022-11-20T18:02:38;2.50;99.90
52669;DHT22;59898;52.786;6.892;2022-11-20T18:06:14;1.30;99.90
52669;DHT22;59898;52.786;6.892;2022-11-20T18:09:34;1.30;99.90
52669;DHT22;59898;52.786;6.892;2022-11-20T18:12:55;2.70;99.90
52669;DHT22;59898;52.786;6.892;2022-11-20T18:16:16;1.90;99.90
52669;DHT22;59898;52.786;6.892;2022-11-20T18:19:42;1.40;99.90
52669;DHT22;59898;52.786;6.892;2022-11-20T18:23:03;1.30;99.90
52669;DHT22;59898;52.786;6.892;2022-11-20T18:26:24;1.40;99.90
52669;DHT22;59898;52.786;6.892;2022-11-20T18:29:46;2.60;99.90
52669;DHT22;59898;52.786;6.892;2022-11-20T18:33:10;1.30;99.90
52669;DHT22;59898;52.786;6.892;2022-11-20T18:36:31;1.40;99.90
52669;DHT22;59898;52.786;6.892;2022-11-20T18:39:52;1.30;99.90
52669;DHT22;59898;52.786;6.892;2022-11-20T18:43:13;1.40;99.90
52669;DHT22;59898;52.786;6.892;2022-11-20T18:46:52;1.40;99.90
52669;DHT22;59898;52.786;6.892;2022-11-20T18:50:12;2.00;99.90
52669;DHT22;59898;52.786;6.892;2022-11-20T18:53:36;2.50;99.90
52669;DHT22;59898;52.786;6.892;2022-11-20T18:56:57;1.40;99.90
52669;DHT22;59898;52.786;6.892;2022-11-20T19:00:18;2.60;99.90
52669;DHT22;59898;52.786;6.892;2022-11-20T19:03:38;1.30;99.90
52669;DHT22;59898;52.786;6.892;2022-11-20T19:06:59;1.30;99.90
52669;DHT22;59898;52.786;6.892;2022-11-20T19:10:20;2.30;99.90
52669;DHT22;59898;52.786;6.892;2022-11-20T19:13:43;1.30;99.90
52669;DHT22;59898;52.786;6.892;2022-11-20T19:17:05;1.40;99.90
52669;DHT22;59898;52.786;6.892;2022-11-20T19:20:26;1.20;99.90
52669;DHT22;59898;52.786;6.892;2022-11-20T19:23:51;1.30;99.90
52669;DHT22;59898;52.786;6.892;2022-11-20T19:27:13;1.30;99.90
52669;DHT22;59898;52.786;6.892;2022-11-20T19:30:34;2.10;99.90
52669;DHT22;59898;52.786;6.892;2022-11-20T19:33:59;1.40;99.90
52669;DHT22;59898;52.786;6.892;2022-11-20T19:37:20;1.40;99.90
52669;DHT22;59898;52.786;6.892;2022-11-20T19:40:41;2.30;99.90
52669;DHT22;59898;52.786;6.892;2022-11-20T19:44:04;2.20;99.90
52669;DHT22;59898;52.786;6.892;2022-11-20T19:47:25;1.40;99.90
52669;DHT22;59898;52.786;6.892;2022-11-20T19:50:46;1.90;99.90
52669;DHT22;59898;52.786;6.892;2022-11-20T19:54:07;1.30;99.90
52669;DHT22;59898;52.786;6.892;2022-11-20T19:57:27;2.50;99.90
52669;DHT22;59898;52.786;6.892;2022-11-20T20:00:48;1.40;99.90
52669;DHT22;59898;52.786;6.892;2022-11-20T20:04:09;1.50;99.90
52669;DHT22;59898;52.786;6.892;2022-11-20T20:07:29;2.20;99.90
52669;DHT22;59898;52.786;6.892;2022-11-20T20:10:50;1.40;99.90
52669;DHT22;59898;52.786;6.892;2022-11-20T20:14:13;2.60;99.90
52669;DHT22;59898;52.786;6.892;2022-11-20T20:17:34;1.30;99.90
52669;DHT22;59898;52.786;6.892;2022-11-20T20:20:54;1.70;99.90
52669;DHT22;59898;52.786;6.892;2022-11-20T20:24:15;1.40;99.90
52669;DHT22;59898;52.786;6.892;2022-11-20T20:27:36;1.50;99.90
52669;DHT22;59898;52.786;6.892;2022-11-20T20:31:01;1.40;99.90
52669;DHT22;59898;52.786;6.892;2022-11-20T20:34:24;2.20;99.90
52669;DHT22;59898;52.786;6.892;2022-11-20T20:37:49;1.60;99.90
52669;DHT22;59898;52.786;6.892;2022-11-20T20:41:09;1.60;99.90
52669;DHT22;59898;52.786;6.892;2022-11-20T20:44:30;1.50;99.90
52669;DHT22;59898;52.786;6.892;2022-11-20T20:48:09;2.30;99.90
52669;DHT22;59898;52.786;6.892;2022-11-20T20:51:30;1.50;99.90
52669;DHT22;59898;52.786;6.892;2022-11-20T20:54:50;1.40;99.90
52669;DHT22;59898;52.786;6.892;2022-11-20T20:58:11;2.90;99.90
52669;DHT22;59898;52.786;6.892;2022-11-20T21:01:32;1.40;99.90
52669;DHT22;59898;52.786;6.892;2022-11-20T21:04:53;1.40;99.90
52669;DHT22;59898;52.786;6.892;2022-11-20T21:08:13;1.50;99.90
52669;DHT22;59898;52.786;6.892;2022-11-20T21:11:47;1.50;99.90
52669;DHT22;59898;52.786;6.892;2022-11-20T21:15:08;1.40;99.90
52669;DHT22;59898;52.786;6.892;2022-11-20T21:18:29;1.50;99.90
52669;DHT22;59898;52.786;6.892;2022-11-20T21:21:50;1.90;99.90
52669;DHT22;59898;52.786;6.892;2022-11-20T21:25:20;1.40;99.90
52669;DHT22;59898;52.786;6.892;2022-11-20T21:28:41;1.50;99.90
52669;DHT22;59898;52.786;6.892;2022-11-20T21:32:02;1.50;99.90
52669;DHT22;59898;52.786;6.892;2022-11-20T21:35:22;2.00;99.90
52669;DHT22;59898;52.786;6.892;2022-11-20T21:38:44;1.90;99.90
52669;DHT22;59898;52.786;6.892;2022-11-20T21:42:05;1.80;99.90
52669;DHT22;59898;52.786;6.892;2022-11-20T21:45:25;2.00;99.90
52669;DHT22;59898;52.786;6.892;2022-11-20T21:48:46;2.00;99.90
52669;DHT22;59898;52.786;6.892;2022-11-20T21:52:07;1.20;99.90
52669;DHT22;59898;52.786;6.892;2022-11-20T21:55:27;2.40;99.90
52669;DHT22;59898;52.786;6.892;2022-11-20T21:58:48;2.00;99.90
52669;DHT22;59898;52.786;6.892;2022-11-20T22:02:12;1.20;99.90
52669;DHT22;59898;52.786;6.892;2022-11-20T22:05:33;1.60;99.90
52669;DHT22;59898;52.786;6.892;2022-11-20T22:08:54;1.90;99.90
52669;DHT22;59898;52.786;6.892;2022-11-20T22:12:14;1.70;99.90
52669;DHT22;59898;52.786;6.892;2022-11-20T22:15:35;1.20;99.90
52669;DHT22;59898;52.786;6.892;2022-11-20T22:18:56;1.20;99.90
52669;DHT22;59898;52.786;6.892;2022-11-20T22:22:17;1.10;99.90
52669;DHT22;59898;52.786;6.892;2022-11-20T22:25:38;1.20;99.90
52669;DHT22;59898;52.786;6.892;2022-11-20T22:28:59;1.80;99.90
52669;DHT22;59898;52.786;6.892;2022-11-20T22:32:20;1.40;99.90
52669;DHT22;59898;52.786;6.892;2022-11-20T22:35:40;1.10;99.90
52669;DHT22;59898;52.786;6.892;2022-11-20T22:39:01;1.80;99.90
52669;DHT22;59898;52.786;6.892;2022-11-20T22:42:22;2.20;99.90
52669;DHT22;59898;52.786;6.892;2022-11-20T22:45:43;1.70;99.90
52669;DHT22;59898;52.786;6.892;2022-11-20T22:49:06;1.10;99.90
52669;DHT22;59898;52.786;6.892;2022-11-20T22:52:28;1.70;99.90
52669;DHT22;59898;52.786;6.892;2022-11-20T22:55:48;1.60;99.90
52669;DHT22;59898;52.786;6.892;2022-11-20T22:59:09;2.60;99.90